createdAt,value
2023-04-02T00:00:05.359Z,0.65
2023-04-02T00:00:19.181Z,0.60
2023-04-02T00:00:31.195Z,0.60
2023-04-02T00:01:04.163Z,0.80
2023-04-02T00:01:23.525Z,1.00
2023-04-02T00:01:38.821Z,0.93
2023-04-02T00:01:51.629Z,1.00
2023-04-02T00:02:33.198Z,1.10
2023-04-02T00:02:54.460Z,0.80
2023-04-02T00:03:10.457Z,0.93
2023-04-02T00:03:22.591Z,1.00
2023-04-02T00:03:42.468Z,0.85
2023-04-02T00:03:59.541Z,0.73
2023-04-02T00:04:22.215Z,0.85
2023-04-02T00:04:38.056Z,0.85
2023-04-02T00:05:34.424Z,0.93
2023-04-02T00:05:52.575Z,1.10
2023-04-02T00:06:30.609Z,0.95
2023-04-02T00:06:45.998Z,1.02
2023-04-02T00:07:21.363Z,1.00
2023-04-02T00:07:33.756Z,1.20
2023-04-02T00:07:51.094Z,1.20
2023-04-02T00:08:10.219Z,1.05
2023-04-02T00:08:40.983Z,1.00
2023-04-02T00:08:56.241Z,0.90
2023-04-02T00:09:10.942Z,0.90
2023-04-02T00:09:36.390Z,0.80
2023-04-02T00:09:48.355Z,1.00
2023-04-02T00:10:00.429Z,1.10
2023-04-02T00:10:39.838Z,1.08
2023-04-02T00:10:55.693Z,0.98
2023-04-02T00:11:09.297Z,1.25
2023-04-02T00:11:33.373Z,1.05
2023-04-02T00:11:49.235Z,0.80
2023-04-02T00:12:15.835Z,0.85
2023-04-02T00:12:27.837Z,0.80
2023-04-02T00:12:39.901Z,0.90
2023-04-02T00:13:03.682Z,0.80
2023-04-02T00:13:18.221Z,0.73
2023-04-02T00:13:46.938Z,0.80
2023-04-02T00:14:04.251Z,0.80
2023-04-02T00:14:36.262Z,0.90
2023-04-02T00:14:52.284Z,1.00
2023-04-02T00:15:04.408Z,0.85
2023-04-02T00:15:16.791Z,0.80
2023-04-02T00:15:29.405Z,0.85
2023-04-02T00:15:44.411Z,0.95
2023-04-02T00:15:58.342Z,0.77
2023-04-02T00:16:19.783Z,0.73
2023-04-02T00:16:32.415Z,0.90
2023-04-02T00:16:45.531Z,0.75
2023-04-02T00:17:00.838Z,0.80
2023-04-02T00:17:15.380Z,0.90
2023-04-02T00:17:27.362Z,0.80
2023-04-02T00:17:41.925Z,0.77
2023-04-02T00:17:54.165Z,0.60
2023-04-02T00:18:07.071Z,0.77
2023-04-02T00:18:21.647Z,1.00
2023-04-02T00:18:37.013Z,1.15
2023-04-02T00:18:53.927Z,1.10
2023-04-02T00:19:15.860Z,1.00
2023-04-02T00:19:37.413Z,0.90
2023-04-02T00:20:02.337Z,0.90
2023-04-02T00:20:16.185Z,0.90
2023-04-02T00:20:30.418Z,0.88
2023-04-02T00:20:46.629Z,0.80
2023-04-02T00:21:19.306Z,1.20
2023-04-02T00:21:34.785Z,1.10
2023-04-02T00:21:47.612Z,1.00
2023-04-02T00:22:02.018Z,0.93
2023-04-02T00:22:18.558Z,0.80
2023-04-02T00:22:32.358Z,0.80
2023-04-02T00:22:45.775Z,0.93
2023-04-02T00:22:57.789Z,1.00
2023-04-02T00:23:14.615Z,1.00
2023-04-02T00:23:26.682Z,0.90
2023-04-02T00:23:44.222Z,0.80
2023-04-02T00:23:59.878Z,0.75
2023-04-02T00:24:17.413Z,0.70
2023-04-02T00:24:29.338Z,0.90
2023-04-02T00:24:41.903Z,1.10
2023-04-02T00:24:56.287Z,0.82
2023-04-02T00:25:13.740Z,0.70
2023-04-02T00:25:28.403Z,0.80
2023-04-02T00:25:45.607Z,0.68
2023-04-02T00:25:57.774Z,0.70
2023-04-02T00:26:32.052Z,0.77
2023-04-02T00:26:46.377Z,0.63
2023-04-02T00:26:58.318Z,0.70
2023-04-02T00:27:14.642Z,0.70
2023-04-02T00:27:26.569Z,0.70
2023-04-02T00:27:38.935Z,0.80
2023-04-02T00:27:50.855Z,0.88
2023-04-02T00:28:03.749Z,0.80
2023-04-02T00:28:22.781Z,0.60
2023-04-02T00:28:35.574Z,0.60
2023-04-02T00:28:47.848Z,0.65
2023-04-02T00:29:01.765Z,0.63
2023-04-02T00:29:15.805Z,0.80
2023-04-02T00:29:27.736Z,0.80
2023-04-02T00:29:51.076Z,0.95
2023-04-02T00:30:04.257Z,0.70
2023-04-02T00:30:16.344Z,0.70
2023-04-02T00:30:28.487Z,0.70
2023-04-02T00:30:51.431Z,0.70
2023-04-02T00:31:03.811Z,0.50
2023-04-02T00:31:18.625Z,0.60
2023-04-02T00:31:31.551Z,0.75
2023-04-02T00:31:54.255Z,0.82
2023-04-02T00:32:06.625Z,0.70
2023-04-02T00:32:31.783Z,0.60
2023-04-02T00:32:43.904Z,0.52
2023-04-02T00:32:56.136Z,0.60
2023-04-02T00:33:16.142Z,0.60
2023-04-02T00:33:31.409Z,0.50
2023-04-02T00:33:44.018Z,0.70
2023-04-02T00:33:57.136Z,0.70
2023-04-02T00:34:22.783Z,0.73
2023-04-02T00:34:37.866Z,0.80
2023-04-02T00:34:50.651Z,0.60
2023-04-02T00:35:04.700Z,0.77
2023-04-02T00:35:26.410Z,0.90
2023-04-02T00:35:39.294Z,0.80
2023-04-02T00:35:53.326Z,0.70
2023-04-02T00:36:08.021Z,0.70
2023-04-02T00:36:22.109Z,0.70
2023-04-02T00:36:35.492Z,0.80
2023-04-02T00:36:49.250Z,0.73
2023-04-02T00:37:01.786Z,0.70
2023-04-02T00:37:23.841Z,0.70
2023-04-02T00:37:39.432Z,0.70
2023-04-02T00:37:51.708Z,0.60
2023-04-02T00:38:03.871Z,0.60
2023-04-02T00:38:30.796Z,0.60
2023-04-02T00:38:44.281Z,0.70
2023-04-02T00:38:59.529Z,0.70
2023-04-02T00:39:18.900Z,0.70
2023-04-02T00:39:34.898Z,0.80
2023-04-02T00:39:47.646Z,0.80
2023-04-02T00:40:07.187Z,0.77
2023-04-02T00:40:30.681Z,0.80
2023-04-02T00:40:42.673Z,0.70
2023-04-02T00:40:58.142Z,0.63
2023-04-02T00:41:19.155Z,0.80
2023-04-02T00:41:49.443Z,0.82
2023-04-02T00:42:05.550Z,0.65
2023-04-02T00:42:18.442Z,0.60
2023-04-02T00:42:31.440Z,0.70
2023-04-02T00:42:44.709Z,0.70
2023-04-02T00:42:59.942Z,0.50
2023-04-02T00:43:16.758Z,0.65
2023-04-02T00:43:32.184Z,0.90
2023-04-02T00:43:46.809Z,0.75
2023-04-02T00:44:00.879Z,0.70
2023-04-02T00:44:15.871Z,0.70
2023-04-02T00:44:30.365Z,0.60
2023-04-02T00:44:45.728Z,0.63
2023-04-02T00:44:58.977Z,0.70
2023-04-02T00:45:22.652Z,0.65
2023-04-02T00:45:38.843Z,0.60
2023-04-02T00:45:56.612Z,0.70
2023-04-02T00:46:15.145Z,0.70
2023-04-02T00:46:34.506Z,0.90
2023-04-02T00:46:49.693Z,0.73
2023-04-02T00:47:17.130Z,0.60
2023-04-02T00:47:47.258Z,0.70
2023-04-02T00:48:13.656Z,0.80
2023-04-02T00:48:44.400Z,0.60
2023-04-02T00:48:56.247Z,0.60
2023-04-02T00:49:18.038Z,0.68
2023-04-02T00:49:36.796Z,0.88
2023-04-02T00:49:54.607Z,1.30
2023-04-02T00:50:20.528Z,0.70
2023-04-02T00:50:40.999Z,0.75
2023-04-02T00:50:54.467Z,0.70
2023-04-02T00:51:29.205Z,0.63
2023-04-02T00:51:48.002Z,0.85
2023-04-02T00:52:06.628Z,0.73
2023-04-02T00:52:25.402Z,0.77
2023-04-02T00:52:39.006Z,0.80
2023-04-02T00:52:54.408Z,0.70
2023-04-02T00:53:25.885Z,0.73
2023-04-02T00:53:39.069Z,0.70
2023-04-02T00:53:54.568Z,0.65
2023-04-02T00:54:10.230Z,0.60
2023-04-02T00:54:25.667Z,0.70
2023-04-02T00:54:52.862Z,0.70
2023-04-02T00:55:32.124Z,0.82
2023-04-02T00:55:44.581Z,1.00
2023-04-02T00:55:58.923Z,0.82
2023-04-02T00:56:25.514Z,0.63
2023-04-02T00:56:42.336Z,0.85
2023-04-02T00:56:57.104Z,0.80
2023-04-02T00:57:17.837Z,0.70
2023-04-02T00:57:30.927Z,0.70
2023-04-02T00:57:45.008Z,0.65
2023-04-02T00:57:59.328Z,0.77
2023-04-02T00:58:27.629Z,0.70
2023-04-02T00:58:40.483Z,0.70
2023-04-02T00:58:58.382Z,0.60
2023-04-02T00:59:26.322Z,0.70
2023-04-02T00:59:51.029Z,0.60
2023-04-02T01:00:07.867Z,0.70
2023-04-02T01:00:33.288Z,0.60
2023-04-02T01:00:54.514Z,0.70
2023-04-02T01:01:19.864Z,0.60
2023-04-02T01:01:37.416Z,0.60
2023-04-02T01:01:54.368Z,0.65
2023-04-02T01:02:38.406Z,0.70
2023-04-02T01:03:13.112Z,0.60
2023-04-02T01:03:34.353Z,0.80
2023-04-02T01:04:34.434Z,0.77
2023-04-02T01:04:55.677Z,0.60
2023-04-02T01:05:16.669Z,0.70
2023-04-02T01:05:34.754Z,0.60
2023-04-02T01:05:55.790Z,0.60
2023-04-02T01:06:11.378Z,0.60
2023-04-02T01:06:29.543Z,0.70
2023-04-02T01:06:43.873Z,0.70
2023-04-02T01:06:56.593Z,0.65
2023-04-02T01:07:12.204Z,0.88
2023-04-02T01:07:37.328Z,0.77
2023-04-02T01:08:16.922Z,0.90
2023-04-02T01:08:43.775Z,0.70
2023-04-02T01:09:14.709Z,0.60
2023-04-02T01:09:33.511Z,0.60
2023-04-02T01:10:00.422Z,0.60
2023-04-02T01:10:45.870Z,0.73
2023-04-02T01:11:03.579Z,0.52
2023-04-02T01:11:36.984Z,0.60
2023-04-02T01:11:51.631Z,0.70
2023-04-02T01:12:22.020Z,0.70
2023-04-02T01:12:55.090Z,0.65
2023-04-02T01:13:17.785Z,0.60
2023-04-02T01:13:39.622Z,0.60
2023-04-02T01:14:30.337Z,0.80
2023-04-02T01:14:45.005Z,0.60
2023-04-02T01:15:18.245Z,0.70
2023-04-02T01:15:42.678Z,0.60
2023-04-02T01:16:08.570Z,0.70
2023-04-02T01:16:33.071Z,0.70
2023-04-02T01:17:01.625Z,0.60
2023-04-02T01:17:43.240Z,0.70
2023-04-02T01:18:19.739Z,0.70
2023-04-02T01:18:53.603Z,0.65
2023-04-02T01:19:43.672Z,0.82
2023-04-02T01:20:10.109Z,1.00
2023-04-02T01:20:49.446Z,0.82
2023-04-02T01:21:07.246Z,0.80
2023-04-02T01:21:31.141Z,0.82
2023-04-02T01:22:00.559Z,0.90
2023-04-02T01:22:42.563Z,0.82
2023-04-02T01:23:00.627Z,0.80
2023-04-02T01:23:28.230Z,1.08
2023-04-02T01:24:13.606Z,1.15
2023-04-02T01:24:31.547Z,1.30
2023-04-02T01:24:44.111Z,0.85
2023-04-02T01:24:58.336Z,0.70
2023-04-02T01:25:17.702Z,0.80
2023-04-02T01:25:42.300Z,1.30
2023-04-02T01:26:11.772Z,1.10
2023-04-02T01:26:41.661Z,1.10
2023-04-02T01:26:58.597Z,0.60
2023-04-02T01:27:24.738Z,0.80
2023-04-02T01:27:47.501Z,1.00
2023-04-02T01:28:09.509Z,0.80
2023-04-02T01:28:36.211Z,0.80
2023-04-02T01:29:01.818Z,0.73
2023-04-02T01:29:33.761Z,0.80
2023-04-02T01:29:57.591Z,0.75
2023-04-02T01:30:12.402Z,0.57
2023-04-02T01:30:24.938Z,0.47
2023-04-02T01:30:37.355Z,0.50
2023-04-02T01:30:55.896Z,0.60
2023-04-02T01:31:09.926Z,0.70
2023-04-02T01:31:23.106Z,0.77
2023-04-02T01:31:36.851Z,0.70
2023-04-02T01:31:52.135Z,0.73
2023-04-02T01:32:13.033Z,0.82
2023-04-02T01:32:28.984Z,1.00
2023-04-02T01:32:42.455Z,0.93
2023-04-02T01:32:57.554Z,0.90
2023-04-02T01:33:10.534Z,1.00
2023-04-02T01:33:27.705Z,0.90
2023-04-02T01:33:41.460Z,0.90
2023-04-02T01:33:53.704Z,0.80
2023-04-02T01:34:12.310Z,0.55
2023-04-02T01:34:27.305Z,0.68
2023-04-02T01:34:39.747Z,0.80
2023-04-02T01:34:52.561Z,0.75
2023-04-02T01:35:05.017Z,0.80
2023-04-02T01:35:17.681Z,0.75
2023-04-02T01:35:36.030Z,0.60
2023-04-02T01:35:59.750Z,0.70
2023-04-02T01:36:18.948Z,0.90
2023-04-02T01:36:41.068Z,0.90
2023-04-02T01:37:14.579Z,1.00
2023-04-02T01:37:36.705Z,0.90
2023-04-02T01:38:21.222Z,0.90
2023-04-02T01:38:43.852Z,0.95
2023-04-02T01:39:35.691Z,0.70
2023-04-02T01:40:25.669Z,0.70
2023-04-02T01:41:08.214Z,0.60
2023-04-02T01:41:46.356Z,0.77
2023-04-02T01:42:03.300Z,0.80
2023-04-02T01:42:46.689Z,0.90
2023-04-02T01:43:08.411Z,0.50
2023-04-02T01:43:45.584Z,0.50
2023-04-02T01:44:13.861Z,0.60
2023-04-02T01:44:49.869Z,0.80
2023-04-02T01:45:22.529Z,0.80
2023-04-02T01:45:35.227Z,0.80
2023-04-02T01:45:47.931Z,0.80
2023-04-02T01:46:07.916Z,0.70
2023-04-02T01:46:29.687Z,0.70
2023-04-02T01:46:43.058Z,0.70
2023-04-02T01:46:58.744Z,0.80
2023-04-02T01:47:13.491Z,0.90
2023-04-02T01:47:27.426Z,0.77
2023-04-02T01:47:40.599Z,0.63
2023-04-02T01:47:52.729Z,0.65
2023-04-02T01:48:20.950Z,0.60
2023-04-02T01:48:33.100Z,0.50
2023-04-02T01:48:45.085Z,0.50
2023-04-02T01:49:02.106Z,0.65
2023-04-02T01:49:18.109Z,0.90
2023-04-02T01:49:30.469Z,0.90
2023-04-02T01:49:44.134Z,0.80
2023-04-02T01:50:26.255Z,0.70
2023-04-02T01:50:41.766Z,0.80
2023-04-02T01:50:55.561Z,0.70
2023-04-02T01:51:08.255Z,0.70
2023-04-02T01:51:28.492Z,0.70
2023-04-02T01:51:45.048Z,0.77
2023-04-02T01:51:57.176Z,0.68
2023-04-02T01:52:16.096Z,0.60
2023-04-02T01:52:41.555Z,0.60
2023-04-02T01:52:59.071Z,0.47
2023-04-02T01:53:14.869Z,0.50
2023-04-02T01:53:30.853Z,0.50
2023-04-02T01:53:42.856Z,0.50
2023-04-02T01:53:56.574Z,0.60
2023-04-02T01:54:09.277Z,0.55
2023-04-02T01:54:22.490Z,0.40
2023-04-02T01:54:40.612Z,0.40
2023-04-02T01:54:53.707Z,0.60
2023-04-02T01:55:07.722Z,0.70
2023-04-02T01:55:29.483Z,0.68
2023-04-02T01:55:52.553Z,0.70
2023-04-02T01:56:04.766Z,0.57
2023-04-02T01:56:17.524Z,0.57
2023-04-02T01:56:30.530Z,0.52
2023-04-02T01:56:44.358Z,0.50
2023-04-02T01:56:57.385Z,0.70
2023-04-02T01:57:09.897Z,0.70
2023-04-02T01:57:22.066Z,0.63
2023-04-02T01:57:34.389Z,0.60
2023-04-02T01:57:51.293Z,0.70
2023-04-02T01:58:03.954Z,0.90
2023-04-02T01:58:24.091Z,0.85
2023-04-02T01:58:36.606Z,0.70
2023-04-02T01:58:49.482Z,0.68
2023-04-02T01:59:02.732Z,0.68
2023-04-02T01:59:18.398Z,0.57
2023-04-02T01:59:33.126Z,0.47
2023-04-02T01:59:46.172Z,0.50
2023-04-02T02:00:00.368Z,0.50
2023-04-02T02:00:15.222Z,0.68
2023-04-02T02:00:30.233Z,0.70
2023-04-02T02:00:51.209Z,0.85
2023-04-02T02:01:03.170Z,0.70
2023-04-02T02:01:19.790Z,0.40
2023-04-02T02:01:41.497Z,0.50
2023-04-02T02:02:05.520Z,0.50
2023-04-02T02:02:17.716Z,0.50
2023-04-02T02:02:29.943Z,0.60
2023-04-02T02:02:44.520Z,0.52
2023-04-02T02:02:56.830Z,0.60
2023-04-02T02:03:12.508Z,0.50
2023-04-02T02:03:24.610Z,0.50
2023-04-02T02:03:44.752Z,0.50
2023-04-02T02:03:56.849Z,0.50
2023-04-02T02:04:13.667Z,0.50
2023-04-02T02:04:26.028Z,0.55
2023-04-02T02:04:39.295Z,0.50
2023-04-02T02:04:51.467Z,0.50
2023-04-02T02:05:04.310Z,0.70
2023-04-02T02:05:19.408Z,0.60
2023-04-02T02:05:32.240Z,0.45
2023-04-02T02:05:44.816Z,0.50
2023-04-02T02:05:57.751Z,0.50
2023-04-02T02:06:15.002Z,0.47
2023-04-02T02:06:33.211Z,0.40
2023-04-02T02:06:47.009Z,0.60
2023-04-02T02:07:01.983Z,0.90
2023-04-02T02:07:18.255Z,1.00
2023-04-02T02:07:30.572Z,0.68
2023-04-02T02:07:43.608Z,0.60
2023-04-02T02:07:57.239Z,0.70
2023-04-02T02:08:39.170Z,0.50
2023-04-02T02:08:54.974Z,0.50
2023-04-02T02:09:12.344Z,0.95
2023-04-02T02:09:28.853Z,1.10
2023-04-02T02:09:41.484Z,1.38
2023-04-02T02:09:53.939Z,1.92
2023-04-02T02:10:07.249Z,1.88
2023-04-02T02:10:27.109Z,1.30
2023-04-02T02:10:39.668Z,1.20
2023-04-02T02:10:51.574Z,0.70
2023-04-02T02:11:04.853Z,0.55
2023-04-02T02:11:29.066Z,0.50
2023-04-02T02:11:41.744Z,0.85
2023-04-02T02:11:53.857Z,1.45
2023-04-02T02:12:06.666Z,1.45
2023-04-02T02:12:18.677Z,0.85
2023-04-02T02:12:31.103Z,0.55
2023-04-02T02:12:44.975Z,0.50
2023-04-02T02:12:59.257Z,0.47
2023-04-02T02:13:15.969Z,0.47
2023-04-02T02:13:28.105Z,0.63
2023-04-02T02:13:42.239Z,0.68
2023-04-02T02:13:58.442Z,0.68
2023-04-02T02:14:17.664Z,0.60
2023-04-02T02:14:31.652Z,0.60
2023-04-02T02:14:49.295Z,0.60
2023-04-02T02:15:01.475Z,0.60
2023-04-02T02:15:17.146Z,0.55
2023-04-02T02:15:33.733Z,0.60
2023-04-02T02:15:46.455Z,0.50
2023-04-02T02:16:00.394Z,0.40
2023-04-02T02:16:17.800Z,0.50
2023-04-02T02:16:31.872Z,0.45
2023-04-02T02:16:45.895Z,0.60
2023-04-02T02:17:02.045Z,0.77
2023-04-02T02:17:24.088Z,0.65
2023-04-02T02:17:36.188Z,0.50
2023-04-02T02:17:49.078Z,0.40
2023-04-02T02:18:05.126Z,0.40
2023-04-02T02:18:23.257Z,0.45
2023-04-02T02:18:35.396Z,0.60
2023-04-02T02:18:53.626Z,0.70
2023-04-02T02:19:05.852Z,0.60
2023-04-02T02:19:27.178Z,0.55
2023-04-02T02:19:44.390Z,0.70
2023-04-02T02:20:01.519Z,0.70
2023-04-02T02:20:14.194Z,0.73
2023-04-02T02:20:29.021Z,0.88
2023-04-02T02:20:41.892Z,0.90
2023-04-02T02:20:57.232Z,0.90
2023-04-02T02:21:10.634Z,0.95
2023-04-02T02:21:34.166Z,0.90
2023-04-02T02:21:51.515Z,0.88
2023-04-02T02:22:36.222Z,0.80
2023-04-02T02:22:50.653Z,0.80
2023-04-02T02:23:04.156Z,0.80
2023-04-02T02:23:16.505Z,0.75
2023-04-02T02:23:30.057Z,0.68
2023-04-02T02:23:42.057Z,0.60
2023-04-02T02:23:55.288Z,0.70
2023-04-02T02:24:19.274Z,0.70
2023-04-02T02:24:35.710Z,0.70
2023-04-02T02:24:48.549Z,0.70
2023-04-02T02:25:05.432Z,0.80
2023-04-02T02:25:22.114Z,0.82
2023-04-02T02:25:36.790Z,0.80
2023-04-02T02:25:49.461Z,0.88
2023-04-02T02:26:02.017Z,0.90
2023-04-02T02:26:15.222Z,1.05
2023-04-02T02:26:29.413Z,0.85
2023-04-02T02:26:42.910Z,0.68
2023-04-02T02:27:00.342Z,0.45
2023-04-02T02:27:23.954Z,0.50
2023-04-02T02:27:41.828Z,0.47
2023-04-02T02:28:06.304Z,0.60
2023-04-02T02:28:23.862Z,0.50
2023-04-02T02:28:42.643Z,0.50
2023-04-02T02:28:57.527Z,0.50
2023-04-02T02:29:16.958Z,0.50
2023-04-02T02:29:35.075Z,0.50
2023-04-02T02:29:51.888Z,0.60
2023-04-02T02:30:13.403Z,0.60
2023-04-02T02:30:28.495Z,0.80
2023-04-02T02:30:57.514Z,0.77
2023-04-02T02:31:28.004Z,0.50
2023-04-02T02:31:42.689Z,0.50
2023-04-02T02:31:56.352Z,0.80
2023-04-02T02:32:11.164Z,1.10
2023-04-02T02:32:31.526Z,1.90
2023-04-02T02:33:02.624Z,3.75
2023-04-02T02:33:25.447Z,1.90
2023-04-02T02:33:43.643Z,1.30
2023-04-02T02:34:02.458Z,1.05
2023-04-02T02:34:24.681Z,1.55
2023-04-02T02:34:42.138Z,2.85
2023-04-02T02:35:16.663Z,1.38
2023-04-02T02:35:35.133Z,0.75
2023-04-02T02:35:53.226Z,0.50
2023-04-02T02:36:12.095Z,0.60
2023-04-02T02:36:36.145Z,1.00
2023-04-02T02:36:54.534Z,0.68
2023-04-02T02:37:14.739Z,0.82
2023-04-02T02:37:31.128Z,0.88
2023-04-02T02:37:48.895Z,0.40
2023-04-02T02:38:26.621Z,0.50
2023-04-02T02:38:49.376Z,0.65
2023-04-02T02:39:16.883Z,0.60
2023-04-02T02:39:37.250Z,0.98
2023-04-02T02:39:54.979Z,1.48
2023-04-02T02:40:13.150Z,0.95
2023-04-02T02:40:36.518Z,0.77
2023-04-02T02:40:53.102Z,0.70
2023-04-02T02:41:16.332Z,0.60
2023-04-02T02:41:41.343Z,0.45
2023-04-02T02:42:03.030Z,0.50
2023-04-02T02:42:31.979Z,0.60
2023-04-02T02:42:58.365Z,1.63
2023-04-02T02:43:13.772Z,0.90
2023-04-02T02:43:26.913Z,1.10
2023-04-02T02:43:41.749Z,1.00
2023-04-02T02:43:59.637Z,0.80
2023-04-02T02:44:19.480Z,0.90
2023-04-02T02:44:37.119Z,1.10
2023-04-02T02:44:51.650Z,0.90
2023-04-02T02:45:07.676Z,0.80
2023-04-02T02:45:25.138Z,0.93
2023-04-02T02:45:41.143Z,0.90
2023-04-02T02:45:55.541Z,0.80
2023-04-02T02:46:09.919Z,0.80
2023-04-02T02:46:25.346Z,0.68
2023-04-02T02:47:02.338Z,0.52
2023-04-02T02:47:25.204Z,0.50
2023-04-02T02:47:39.121Z,0.50
2023-04-02T02:47:55.350Z,0.75
2023-04-02T02:48:14.988Z,0.82
2023-04-02T02:48:37.279Z,0.70
2023-04-02T02:48:52.120Z,0.75
2023-04-02T02:49:06.087Z,0.80
2023-04-02T02:49:25.439Z,0.80
2023-04-02T02:49:42.184Z,0.80
2023-04-02T02:49:59.138Z,1.00
2023-04-02T02:50:19.016Z,0.93
2023-04-02T02:50:32.754Z,0.80
2023-04-02T02:50:45.650Z,0.70
2023-04-02T02:50:58.408Z,0.68
2023-04-02T02:51:20.489Z,0.68
2023-04-02T02:52:01.041Z,0.80
2023-04-02T02:52:15.275Z,0.98
2023-04-02T02:52:36.325Z,1.02
2023-04-02T02:52:53.707Z,0.75
2023-04-02T02:53:18.968Z,0.73
2023-04-02T02:53:31.164Z,0.88
2023-04-02T02:53:53.485Z,0.85
2023-04-02T02:54:06.010Z,0.75
2023-04-02T02:54:19.599Z,0.70
2023-04-02T02:54:33.351Z,0.80
2023-04-02T02:54:53.145Z,0.90
2023-04-02T02:55:12.704Z,0.80
2023-04-02T02:55:34.532Z,0.70
2023-04-02T02:55:52.823Z,0.77
2023-04-02T02:56:05.273Z,0.77
2023-04-02T02:56:18.997Z,0.70
2023-04-02T02:56:37.645Z,0.60
2023-04-02T02:56:55.777Z,0.73
2023-04-02T02:57:13.200Z,1.70
2023-04-02T02:57:29.068Z,2.95
2023-04-02T02:57:47.944Z,2.70
2023-04-02T02:58:05.044Z,1.73
2023-04-02T02:58:26.408Z,1.13
2023-04-02T02:58:38.955Z,0.63
2023-04-02T02:58:53.295Z,0.50
2023-04-02T02:59:09.979Z,0.40
2023-04-02T02:59:23.087Z,0.50
2023-04-02T02:59:35.939Z,0.50
2023-04-02T02:59:48.708Z,0.50
2023-04-02T03:00:02.158Z,0.50
2023-04-02T03:00:16.116Z,0.50
2023-04-02T03:00:28.353Z,0.50
2023-04-02T03:00:40.915Z,0.52
2023-04-02T03:00:53.896Z,0.50
2023-04-02T03:01:06.187Z,0.50
2023-04-02T03:01:18.842Z,0.50
2023-04-02T03:01:31.922Z,0.57
2023-04-02T03:01:47.695Z,0.50
2023-04-02T03:02:02.287Z,0.40
2023-04-02T03:02:15.493Z,0.50
2023-04-02T03:02:30.633Z,0.50
2023-04-02T03:02:43.717Z,0.50
2023-04-02T03:02:57.556Z,0.60
2023-04-02T03:03:14.529Z,0.50
2023-04-02T03:03:30.130Z,0.50
2023-04-02T03:03:42.486Z,0.60
2023-04-02T03:03:55.403Z,0.70
2023-04-02T03:04:07.810Z,0.68
2023-04-02T03:04:24.093Z,0.60
2023-04-02T03:04:36.318Z,0.80
2023-04-02T03:04:52.885Z,0.82
2023-04-02T03:05:05.978Z,0.80
2023-04-02T03:05:23.650Z,0.80
2023-04-02T03:05:36.433Z,0.70
2023-04-02T03:06:05.270Z,0.75
2023-04-02T03:06:20.612Z,0.60
2023-04-02T03:06:32.917Z,0.60
2023-04-02T03:06:50.109Z,0.68
2023-04-02T03:07:03.863Z,0.60
2023-04-02T03:07:16.785Z,0.63
2023-04-02T03:07:30.872Z,0.80
2023-04-02T03:07:43.632Z,0.90
2023-04-02T03:07:58.406Z,0.75
2023-04-02T03:08:34.669Z,0.50
2023-04-02T03:08:57.662Z,1.08
2023-04-02T03:09:21.635Z,1.80
2023-04-02T03:10:00.287Z,0.80
2023-04-02T03:10:21.163Z,0.60
2023-04-02T03:11:19.545Z,0.70
2023-04-02T03:11:39.807Z,0.60
2023-04-02T03:12:02.012Z,0.55
2023-04-02T03:12:39.751Z,0.40
2023-04-02T03:12:59.008Z,0.43
2023-04-02T03:13:33.039Z,0.50
2023-04-02T03:13:49.095Z,0.68
2023-04-02T03:14:15.517Z,0.70
2023-04-02T03:14:53.454Z,0.45
2023-04-02T03:15:49.729Z,0.60
2023-04-02T03:16:15.361Z,0.60
2023-04-02T03:16:31.200Z,0.65
2023-04-02T03:16:52.500Z,0.60
2023-04-02T03:17:21.352Z,0.60
2023-04-02T03:17:50.381Z,0.60
2023-04-02T03:18:04.720Z,0.60
2023-04-02T03:18:44.768Z,0.63
2023-04-02T03:19:09.747Z,0.60
2023-04-02T03:20:01.514Z,0.60
2023-04-02T03:20:36.206Z,0.70
2023-04-02T03:20:52.605Z,0.45
2023-04-02T03:21:48.624Z,0.65
2023-04-02T03:22:21.216Z,0.57
2023-04-02T03:22:41.357Z,0.50
2023-04-02T03:23:14.682Z,0.70
2023-04-02T03:23:38.929Z,0.55
2023-04-02T03:24:03.312Z,0.60
2023-04-02T03:24:52.981Z,0.70
2023-04-02T03:25:10.824Z,0.70
2023-04-02T03:25:32.819Z,0.70
2023-04-02T03:26:06.716Z,0.82
2023-04-02T03:26:24.391Z,0.85
2023-04-02T03:26:43.230Z,1.40
2023-04-02T03:27:07.208Z,1.25
2023-04-02T03:27:42.693Z,0.65
2023-04-02T03:28:01.741Z,0.50
2023-04-02T03:28:19.649Z,0.90
2023-04-02T03:28:37.778Z,0.98
2023-04-02T03:29:00.878Z,0.63
2023-04-02T03:29:32.850Z,0.50
2023-04-02T03:30:05.491Z,0.60
2023-04-02T03:30:44.599Z,0.70
2023-04-02T03:31:02.846Z,0.93
2023-04-02T03:31:32.412Z,0.98
2023-04-02T03:32:04.732Z,0.70
2023-04-02T03:32:28.745Z,0.60
2023-04-02T03:32:43.580Z,0.55
2023-04-02T03:33:02.201Z,0.40
2023-04-02T03:33:17.405Z,0.60
2023-04-02T03:33:56.800Z,0.60
2023-04-02T03:34:17.833Z,0.85
2023-04-02T03:34:38.161Z,0.70
2023-04-02T03:34:55.238Z,0.63
2023-04-02T03:35:34.389Z,0.55
2023-04-02T03:35:57.820Z,0.70
2023-04-02T03:36:18.984Z,0.75
2023-04-02T03:36:38.411Z,0.70
2023-04-02T03:36:57.861Z,0.70
2023-04-02T03:37:16.236Z,0.70
2023-04-02T03:37:35.942Z,0.63
2023-04-02T03:38:00.712Z,0.55
2023-04-02T03:38:25.739Z,0.70
2023-04-02T03:38:44.564Z,0.80
2023-04-02T03:39:13.675Z,0.70
2023-04-02T03:39:39.302Z,0.70
2023-04-02T03:39:58.027Z,0.70
2023-04-02T03:40:17.380Z,0.77
2023-04-02T03:40:37.933Z,0.85
2023-04-02T03:41:01.429Z,0.80
2023-04-02T03:41:25.524Z,0.80
2023-04-02T03:41:47.792Z,0.75
2023-04-02T03:42:25.075Z,0.60
2023-04-02T03:42:51.014Z,0.70
2023-04-02T03:43:18.351Z,0.70
2023-04-02T03:43:58.352Z,0.77
2023-04-02T03:44:22.175Z,0.70
2023-04-02T03:45:01.462Z,0.60
2023-04-02T03:45:16.244Z,0.90
2023-04-02T03:45:33.694Z,1.10
2023-04-02T03:45:51.702Z,0.80
2023-04-02T03:46:31.412Z,0.70
2023-04-02T03:47:00.100Z,0.75
2023-04-02T03:47:39.911Z,0.80
2023-04-02T03:48:03.781Z,1.00
2023-04-02T03:48:20.948Z,0.90
2023-04-02T03:49:28.194Z,0.73
2023-04-02T03:49:46.094Z,0.60
2023-04-02T03:50:21.050Z,0.70
2023-04-02T03:50:48.883Z,0.60
2023-04-02T03:51:24.742Z,0.60
2023-04-02T03:52:02.660Z,0.70
2023-04-02T03:52:29.029Z,1.20
2023-04-02T03:52:41.307Z,0.65
2023-04-02T03:52:53.576Z,0.60
2023-04-02T03:53:05.650Z,0.80
2023-04-02T03:53:18.067Z,0.90
2023-04-02T03:53:32.508Z,0.80
2023-04-02T03:53:45.644Z,0.70
2023-04-02T03:53:57.748Z,0.70
2023-04-02T03:54:15.981Z,0.77
2023-04-02T03:54:28.483Z,0.80
2023-04-02T03:54:41.077Z,0.65
2023-04-02T03:55:19.285Z,0.70
2023-04-02T03:55:37.003Z,0.65
2023-04-02T03:55:49.523Z,0.70
2023-04-02T03:56:02.307Z,0.80
2023-04-02T03:56:31.585Z,0.70
2023-04-02T03:56:47.248Z,0.80
2023-04-02T03:57:00.237Z,1.08
2023-04-02T03:57:25.683Z,1.10
2023-04-02T03:57:47.089Z,0.80
2023-04-02T03:58:09.385Z,1.00
2023-04-02T03:58:27.069Z,0.95
2023-04-02T03:58:46.834Z,0.63
2023-04-02T03:59:38.537Z,0.80
2023-04-02T03:59:59.354Z,0.70
2023-04-02T04:00:28.368Z,0.60
2023-04-02T04:00:55.703Z,0.65
2023-04-02T04:01:31.869Z,0.50
2023-04-02T04:01:54.907Z,0.55
2023-04-02T04:02:24.589Z,0.93
2023-04-02T04:02:42.237Z,0.70
2023-04-02T04:02:59.036Z,0.52
2023-04-02T04:03:25.238Z,0.50
2023-04-02T04:03:42.191Z,0.70
2023-04-02T04:03:57.460Z,0.70
2023-04-02T04:04:17.081Z,0.90
2023-04-02T04:04:32.186Z,0.68
2023-04-02T04:04:46.144Z,0.60
2023-04-02T04:04:58.286Z,0.70
2023-04-02T04:05:37.909Z,0.70
2023-04-02T04:05:55.867Z,0.50
2023-04-02T04:06:21.343Z,0.50
2023-04-02T04:06:36.827Z,0.47
2023-04-02T04:06:52.474Z,0.50
2023-04-02T04:07:04.659Z,0.60
2023-04-02T04:07:31.162Z,0.60
2023-04-02T04:07:44.418Z,0.52
2023-04-02T04:08:08.412Z,0.75
2023-04-02T04:08:23.618Z,0.82
2023-04-02T04:08:43.993Z,0.68
2023-04-02T04:09:09.779Z,0.55
2023-04-02T04:09:31.576Z,0.30
2023-04-02T04:09:46.460Z,0.57
2023-04-02T04:10:00.493Z,0.60
2023-04-02T04:10:19.957Z,0.55
2023-04-02T04:10:33.072Z,0.63
2023-04-02T04:10:45.608Z,0.60
2023-04-02T04:11:01.746Z,0.50
2023-04-02T04:11:18.455Z,0.57
2023-04-02T04:11:34.967Z,0.60
2023-04-02T04:11:52.354Z,0.50
2023-04-02T04:12:15.524Z,0.50
2023-04-02T04:12:32.337Z,0.40
2023-04-02T04:12:48.391Z,0.50
2023-04-02T04:13:09.063Z,0.60
2023-04-02T04:13:29.981Z,0.70
2023-04-02T04:14:03.858Z,0.55
2023-04-02T04:14:45.383Z,0.60
2023-04-02T04:15:07.045Z,0.52
2023-04-02T04:15:24.766Z,0.50
2023-04-02T04:15:40.520Z,0.50
2023-04-02T04:16:02.414Z,0.50
2023-04-02T04:16:23.042Z,0.60
2023-04-02T04:16:56.537Z,0.60
2023-04-02T04:17:09.270Z,0.50
2023-04-02T04:17:29.844Z,0.43
2023-04-02T04:17:51.481Z,0.55
2023-04-02T04:18:10.456Z,0.60
2023-04-02T04:18:40.697Z,0.90
2023-04-02T04:19:05.063Z,0.60
2023-04-02T04:19:41.928Z,0.70
2023-04-02T04:19:54.992Z,0.50
2023-04-02T04:20:33.801Z,0.50
2023-04-02T04:21:02.388Z,0.52
2023-04-02T04:21:39.914Z,0.60
2023-04-02T04:21:56.981Z,0.60
2023-04-02T04:22:19.339Z,0.50
2023-04-02T04:22:32.557Z,0.60
2023-04-02T04:22:44.720Z,0.80
2023-04-02T04:23:10.616Z,0.77
2023-04-02T04:23:41.062Z,0.60
2023-04-02T04:23:53.077Z,0.70
2023-04-02T04:24:07.980Z,0.60
2023-04-02T04:24:23.561Z,0.50
2023-04-02T04:24:39.209Z,0.50